Time;durP1;ratioP1;P1;durP2;ratioP2;P2;SDS_P1;SDS_P2;PMS_P1;PMS_P2;Temp;Humidity;BMP_temperature;BMP_pressure;BME280_temperature;BME280_humidity;BME280_pressure;Samples;Min_cycle;Max_cycle;Signal;HPM_P1;HPM_P2
2021/08/11 00:02:13;;;;;;;5.72;4.28;;;;;;;19.75;62.17;98836.84;1870675;76;22140;-61
2021/08/11 00:04:48;;;;;;;6.35;4.22;;;;;;;19.71;62.31;98834.75;1889956;76;22112;-54
2021/08/11 00:07:23;;;;;;;6.08;3.85;;;;;;;19.69;62.50;98830.03;1889984;76;22535;-55
2021/08/11 00:09:58;;;;;;;6.15;3.98;;;;;;;19.66;62.75;98839.22;1870701;76;22105;-53
2021/08/11 00:12:33;;;;;;;5.87;3.70;;;;;;;19.62;62.94;98815.36;1870735;76;22101;-55
2021/08/11 00:15:10;;;;;;;7.12;3.75;;;;;;;19.58;63.13;98833.34;1870825;76;22149;-54
2021/08/11 00:18:04;;;;;;;7.55;3.98;;;;;;;19.52;63.35;98833.53;1870572;76;22165;-63
2021/08/11 00:20:39;;;;;;;9.50;4.67;;;;;;;19.48;63.59;98835.81;1870731;76;22136;-61
2021/08/11 00:23:15;;;;;;;10.32;4.70;;;;;;;19.45;63.91;98835.90;1889984;76;22156;-57
2021/08/11 00:25:53;;;;;;;7.25;4.35;;;;;;;19.43;64.04;98835.08;1870807;76;22105;-57
2021/08/11 00:28:45;;;;;;;7.17;4.60;;;;;;;19.43;64.20;98836.39;1854642;76;38232;-62
2021/08/11 00:31:20;;;;;;;6.40;4.60;;;;;;;19.46;64.28;98831.06;1870701;76;22109;-60
2021/08/11 00:33:55;;;;;;;6.90;4.97;;;;;;;19.44;64.37;98826.34;1854643;76;27905;-57
2021/08/11 00:36:30;;;;;;;7.20;4.65;;;;;;;19.49;64.40;98832.31;1870701;76;22137;-60
2021/08/11 00:39:11;;;;;;;9.35;4.85;;;;;;;19.47;64.50;98830.18;1869868;76;22590;-53
2021/08/11 00:41:45;;;;;;;6.10;4.60;;;;;;;19.45;64.59;98831.52;1870700;76;22117;-52
2021/08/11 00:44:21;;;;;;;6.53;4.87;;;;;;;19.43;64.74;98825.92;1890070;76;22127;-55
2021/08/11 00:46:59;;;;;;;7.75;4.60;;;;;;;19.41;64.99;98818.55;1870712;76;22527;-51
2021/08/11 00:49:34;;;;;;;7.40;4.75;;;;;;;19.37;65.14;98826.09;1870717;76;22277;-58
2021/08/11 00:52:09;;;;;;;5.62;4.22;;;;;;;19.33;65.37;98820.52;1890106;76;22140;-60
2021/08/11 00:54:44;;;;;;;6.80;4.55;;;;;;;19.27;65.57;98809.33;1870734;76;22113;-51
2021/08/11 00:57:41;;;;;;;7.53;5.15;;;;;;;19.26;65.90;98806.31;1889985;76;20355;-54
2021/08/11 01:00:18;;;;;;;6.83;4.83;;;;;;;19.27;65.92;98814.55;1870697;76;22113;-58
2021/08/11 01:02:53;;;;;;;6.47;4.47;;;;;;;19.23;66.05;98807.70;1870705;76;22109;-56
2021/08/11 01:05:29;;;;;;;7.90;5.12;;;;;;;19.20;66.23;98810.38;1870630;76;22109;-58
2021/08/11 01:08:06;;;;;;;7.17;4.72;;;;;;;19.15;66.51;98804.41;1870551;76;22160;-53
2021/08/11 01:11:01;;;;;;;11.65;5.35;;;;;;;19.12;66.63;98805.81;1870674;76;22112;-62
2021/08/11 01:13:37;;;;;;;9.20;5.12;;;;;;;19.07;66.90;98810.30;1870665;76;20266;-56
2021/08/11 01:16:12;;;;;;;7.17;4.53;;;;;;;19.02;67.24;98807.80;1855033;76;27902;-55
2021/08/11 01:18:46;;;;;;;10.40;4.92;;;;;;;19.02;67.34;98808.25;1870706;76;22524;-59
2021/08/11 01:21:39;;;;;;;7.15;4.12;;;;;;;18.97;67.54;98800.52;1889983;76;22100;-55
2021/08/11 01:24:43;;;;;;;7.50;4.65;;;;;;;18.94;67.69;98799.75;1870741;76;22105;-57
2021/08/11 01:27:59;;;;;;;6.65;4.65;;;;;;;18.90;67.91;98798.09;1890068;76;22147;-57
2021/08/11 01:30:58;;;;;;;5.85;4.05;;;;;;;18.85;68.10;98794.29;1889987;76;22136;-62
2021/08/11 01:34:01;;;;;;;7.60;4.20;;;;;;;18.81;68.37;98797.44;1870689;76;22167;-60
2021/08/11 01:36:48;;;;;;;7.35;4.72;;;;;;;18.75;68.69;98797.61;1873942;76;27982;-56
2021/08/11 01:39:43;;;;;;;5.87;4.20;;;;;;;18.74;68.98;98798.91;1870712;76;22109;-58
2021/08/11 01:42:41;;;;;;;9.18;4.28;;;;;;;18.67;69.31;98798.19;1870673;76;22140;-59
2021/08/11 01:45:21;;;;;;;8.10;4.65;;;;;;;18.64;69.60;98799.58;1890010;76;22152;-59
2021/08/11 01:48:05;;;;;;;7.65;4.37;;;;;;;18.57;69.71;98799.31;1870533;76;22158;-56
2021/08/11 01:50:48;;;;;;;8.33;4.60;;;;;;;18.63;69.95;98795.26;1889986;76;22247;-62
2021/08/11 01:53:43;;;;;;;7.62;5.22;;;;;;;18.56;70.09;98793.69;1870569;76;22113;-59
2021/08/11 01:56:45;;;;;;;10.35;4.53;;;;;;;18.61;70.23;98800.97;1870675;76;22161;-56
2021/08/11 01:59:21;;;;;;;7.75;4.95;;;;;;;18.60;70.37;98804.48;1870740;76;22577;-58
2021/08/11 02:02:17;;;;;;;8.15;5.20;;;;;;;18.60;70.54;98800.56;1890103;76;20097;-58
2021/08/11 02:05:13;;;;;;;6.80;4.85;;;;;;;18.58;70.63;98803.20;1870642;76;22113;-57
2021/08/11 02:07:49;;;;;;;9.70;5.10;;;;;;;18.60;70.80;98809.27;1870737;76;22109;-55
2021/08/11 02:10:24;;;;;;;7.58;5.60;;;;;;;18.60;70.89;98808.41;1873915;76;27926;-56
2021/08/11 02:13:00;;;;;;;9.58;5.05;;;;;;;18.63;70.85;98812.25;1889988;76;22124;-57
2021/08/11 02:15:36;;;;;;;8.48;6.08;;;;;;;18.58;70.96;98806.27;1870713;76;22116;-61
2021/08/11 02:18:12;;;;;;;8.08;6.17;;;;;;;18.41;70.98;98808.82;1890007;76;22112;-58
2021/08/11 02:20:47;;;;;;;7.12;5.05;;;;;;;18.47;71.44;98810.45;1870737;76;22109;-57
2021/08/11 02:23:21;;;;;;;7.53;5.97;;;;;;;18.41;71.69;98811.43;1870751;76;22109;-59
2021/08/11 02:26:29;;;;;;;10.63;5.47;;;;;;;18.39;71.91;98813.67;1870577;76;22186;-57
2021/08/11 02:29:28;;;;;;;6.30;4.40;;;;;;;18.38;72.09;98811.51;1870647;76;22140;-60
2021/08/11 02:32:23;;;;;;;10.98;5.67;;;;;;;18.39;72.23;98811.94;1870639;76;22145;-55
2021/08/11 02:35:21;;;;;;;7.12;5.03;;;;;;;18.40;72.25;98814.95;1889985;76;22120;-56
2021/08/11 02:38:15;;;;;;;10.48;5.75;;;;;;;18.43;72.39;98817.48;1890145;76;22108;-54
2021/08/11 02:41:19;;;;;;;8.30;5.17;;;;;;;18.41;72.50;98815.35;1889961;76;22139;-54
2021/08/11 02:44:09;;;;;;;8.53;5.45;;;;;;;18.43;72.60;98821.41;1890025;76;22550;-61
2021/08/11 02:46:48;;;;;;;7.35;5.55;;;;;;;18.30;72.62;98816.06;1870591;76;22136;-56
2021/08/11 02:49:44;;;;;;;10.32;5.75;;;;;;;18.37;73.03;98822.02;1870659;76;22140;-60
2021/08/11 02:52:40;;;;;;;11.65;6.78;;;;;;;18.34;73.15;98819.45;1870486;76;22190;-55
2021/08/11 02:55:17;;;;;;;12.50;6.70;;;;;;;18.29;73.45;98827.38;1870449;76;22584;-60
2021/08/11 02:57:55;;;;;;;9.48;6.35;;;;;;;18.16;73.60;98829.86;1870605;76;22135;-55
2021/08/11 03:00:32;;;;;;;9.40;6.05;;;;;;;18.19;73.69;98826.75;1870557;76;22105;-59
2021/08/11 03:03:27;;;;;;;6.47;5.17;;;;;;;18.10;74.19;98835.23;1889954;76;22160;-54
2021/08/11 03:06:02;;;;;;;8.38;5.12;;;;;;;18.16;74.19;98832.47;1870708;76;22232;-61
2021/08/11 03:08:37;;;;;;;7.72;4.83;;;;;;;18.13;74.33;98826.87;1889975;76;22168;-52
2021/08/11 03:11:13;;;;;;;8.98;4.95;;;;;;;18.17;74.39;98834.21;1854744;76;27897;-54
2021/08/11 03:13:51;;;;;;;7.03;4.70;;;;;;;18.18;74.44;98826.78;1870716;76;22230;-54
2021/08/11 03:16:28;;;;;;;7.60;4.90;;;;;;;18.25;74.23;98834.05;1835016;77;22562;-56
2021/08/11 03:19:05;;;;;;;7.78;5.12;;;;;;;18.24;74.30;98831.85;1889925;76;22167;-61
2021/08/11 03:21:41;;;;;;;8.00;5.20;;;;;;;18.24;74.33;98834.47;1870622;76;22581;-55
2021/08/11 03:24:17;;;;;;;9.68;4.33;;;;;;;18.26;74.35;98831.38;1889993;76;22116;-59
2021/08/11 03:26:53;;;;;;;10.43;5.28;;;;;;;18.27;74.02;98833.11;1889965;76;22159;-58
2021/08/11 03:29:48;;;;;;;7.03;5.15;;;;;;;18.32;74.32;98839.09;1878271;75;22239;-57
2021/08/11 03:32:29;;;;;;;10.32;5.45;;;;;;;18.35;74.21;98837.72;1869812;76;22172;-62
2021/08/11 03:35:25;;;;;;;7.62;5.62;;;;;;;18.34;74.12;98850.37;1872498;75;22222;-59
2021/08/11 03:38:01;;;;;;;8.88;5.47;;;;;;;18.41;74.04;98848.47;1870547;76;22197;-59
2021/08/11 03:40:58;;;;;;;7.65;5.17;;;;;;;18.33;74.26;98840.80;1890117;76;22136;-56
2021/08/11 03:43:33;;;;;;;9.28;4.97;;;;;;;18.40;74.10;98841.53;1854685;76;27923;-55
2021/08/11 03:46:09;;;;;;;8.25;5.22;;;;;;;18.47;74.03;98840.51;1854632;76;27900;-53
2021/08/11 03:48:44;;;;;;;6.90;5.60;;;;;;;18.56;73.90;98831.12;1870585;76;22582;-53
2021/08/11 03:51:20;;;;;;;8.70;6.20;;;;;;;18.58;73.79;98835.02;1873917;76;27891;-54
2021/08/11 03:53:58;;;;;;;9.55;5.95;;;;;;;18.64;73.64;98835.72;1870630;76;22109;-58
2021/08/11 03:56:53;;;;;;;10.90;5.20;;;;;;;18.67;73.50;98829.55;1870679;76;22148;-58
2021/08/11 03:59:27;;;;;;;10.53;6.03;;;;;;;18.72;73.49;98827.69;1870706;76;22105;-60
2021/08/11 04:02:03;;;;;;;9.60;6.10;;;;;;;18.78;73.44;98828.90;1870691;76;22144;-56
2021/08/11 04:04:40;;;;;;;10.58;5.80;;;;;;;18.82;73.36;98828.36;1889934;76;22144;-59
2021/08/11 04:07:14;;;;;;;12.18;6.28;;;;;;;18.85;73.63;98822.63;1870665;76;22109;-62
2021/08/11 04:09:49;;;;;;;9.50;6.10;;;;;;;18.90;73.17;98839.94;1870691;76;22109;-62
2021/08/11 04:12:27;;;;;;;6.83;5.55;;;;;;;18.96;73.43;98834.58;1889968;76;22558;-52
2021/08/11 04:15:42;;;;;;;8.15;5.28;;;;;;;19.01;73.27;98840.09;1868588;75;22626;-59
2021/08/11 04:18:18;;;;;;;14.80;5.92;;;;;;;19.05;73.30;98844.78;1870615;76;22109;-58
2021/08/11 04:21:12;;;;;;;11.85;5.60;;;;;;;19.12;73.06;98848.97;1870540;76;22567;-58
2021/08/11 04:24:05;;;;;;;8.98;5.80;;;;;;;19.18;72.79;98840.09;1889922;76;22167;-57
2021/08/11 04:26:40;;;;;;;11.50;5.50;;;;;;;19.17;73.16;98844.47;1870686;76;22108;-54
2021/08/11 04:29:15;;;;;;;9.93;5.85;;;;;;;19.23;73.00;98839.53;1889975;76;22136;-53
2021/08/11 04:31:49;;;;;;;8.75;5.47;;;;;;;19.22;72.93;98828.21;1870727;76;22105;-57
2021/08/11 04:34:24;;;;;;;12.18;5.00;;;;;;;19.25;73.12;98835.12;1870667;76;22537;-63
2021/08/11 04:36:59;;;;;;;7.05;5.05;;;;;;;19.30;73.01;98832.78;1870681;76;22132;-59
2021/08/11 04:39:34;;;;;;;9.15;4.83;;;;;;;19.40;73.16;98835.16;1870662;76;22116;-58
2021/08/11 04:42:10;;;;;;;9.33;4.85;;;;;;;19.46;73.12;98833.67;1870463;76;22571;-59
2021/08/11 04:44:45;;;;;;;9.30;5.17;;;;;;;19.49;73.14;98838.40;1889960;76;22532;-58
2021/08/11 04:47:19;;;;;;;8.75;5.72;;;;;;;19.58;73.15;98837.73;1870686;76;22117;-58
2021/08/11 04:49:54;;;;;;;7.12;4.97;;;;;;;19.61;73.17;98838.49;1870664;76;22536;-50
2021/08/11 04:52:29;;;;;;;8.03;5.50;;;;;;;19.69;72.83;98843.55;1870644;76;22113;-58
2021/08/11 04:55:05;;;;;;;7.53;5.22;;;;;;;19.78;72.84;98840.68;1889983;76;22187;-51
2021/08/11 04:58:00;;;;;;;9.78;5.10;;;;;;;19.94;72.49;98842.41;1870410;76;22168;-56
2021/08/11 05:00:53;;;;;;;7.12;5.20;;;;;;;20.07;71.94;98842.44;1870579;76;22222;-58
2021/08/11 05:03:29;;;;;;;11.93;5.50;;;;;;;20.14;71.90;98838.74;1870673;76;22113;-58
2021/08/11 05:06:06;;;;;;;9.95;6.15;;;;;;;20.24;71.64;98851.13;1873894;76;27884;-57
2021/08/11 05:09:00;;;;;;;9.08;5.22;;;;;;;20.40;71.32;98843.64;1870626;76;22145;-56
2021/08/11 05:11:54;;;;;;;9.60;5.20;;;;;;;20.49;71.15;98836.81;1870665;76;22108;-53
2021/08/11 05:14:30;;;;;;;7.75;5.22;;;;;;;20.58;71.00;98830.44;1889957;76;22214;-56
2021/08/11 05:17:04;;;;;;;6.97;5.22;;;;;;;20.69;71.13;98832.28;1889971;76;22108;-60
2021/08/11 05:19:39;;;;;;;7.45;5.20;;;;;;;20.80;70.71;98832.78;1870693;76;22127;-60
2021/08/11 05:22:15;;;;;;;8.43;4.67;;;;;;;20.92;70.67;98834.16;1870728;76;22128;-57
2021/08/11 05:24:51;;;;;;;8.00;5.30;;;;;;;21.09;70.52;98834.03;1889946;76;22131;-62
2021/08/11 05:27:44;;;;;;;9.25;4.80;;;;;;;21.53;69.70;98835.62;1870619;76;22144;-56
2021/08/11 05:30:19;;;;;;;8.00;5.28;;;;;;;23.12;66.08;98825.48;1870662;76;22121;-58
2021/08/11 05:32:54;;;;;;;7.05;4.47;;;;;;;24.99;60.60;98827.07;1870561;76;22137;-58
2021/08/11 05:35:36;;;;;;;10.90;3.80;;;;;;;26.71;55.75;98827.17;1869736;76;22230;-61
2021/08/11 05:38:34;;;;;;;8.50;4.40;;;;;;;28.56;50.96;98828.31;1870603;76;22168;-62
2021/08/11 05:41:27;;;;;;;8.75;4.15;;;;;;;30.33;46.64;98834.41;1870521;76;22562;-55
2021/08/11 05:44:04;;;;;;;5.85;3.83;;;;;;;31.69;43.46;98835.31;1870603;76;22131;-56
2021/08/11 05:46:58;;;;;;;7.90;3.42;;;;;;;32.87;40.67;98842.33;1870600;76;22113;-62
2021/08/11 05:49:36;;;;;;;7.20;3.55;;;;;;;33.78;38.37;98843.57;1889953;76;22041;-55
2021/08/11 05:52:10;;;;;;;8.33;3.70;;;;;;;34.41;36.79;98846.58;1870647;76;22572;-55
2021/08/11 05:55:04;;;;;;;6.53;3.52;;;;;;;34.58;35.75;98857.51;1870722;76;22224;-65
2021/08/11 05:57:40;;;;;;;10.32;3.60;;;;;;;35.00;35.47;98859.08;1870677;76;22216;-59
2021/08/11 06:00:16;;;;;;;7.17;3.60;;;;;;;35.68;34.07;98856.88;1854776;76;28502;-57
2021/08/11 06:03:10;;;;;;;4.85;3.22;;;;;;;36.34;33.45;98859.44;1870583;76;22062;-54
2021/08/11 06:05:45;;;;;;;7.20;3.02;;;;;;;37.00;32.12;98859.64;1889982;76;22112;-56
2021/08/11 06:08:38;;;;;;;5.28;3.22;;;;;;;37.23;31.82;98852.47;1870632;76;22117;-61
2021/08/11 06:11:13;;;;;;;8.05;3.05;;;;;;;37.51;31.42;98856.73;1889946;76;22074;-60
2021/08/11 06:13:48;;;;;;;6.47;3.10;;;;;;;37.71;31.08;98862.76;1854792;76;27918;-61
2021/08/11 06:16:42;;;;;;;11.93;7.15;;;;;;;38.34;30.35;98860.70;1870669;76;23102;-62
2021/08/11 06:19:17;;;;;;;8.83;3.00;;;;;;;38.76;29.69;98862.55;1870682;76;22213;-61
2021/08/11 06:22:11;;;;;;;5.22;2.83;;;;;;;39.16;29.15;98866.30;1889879;76;22476;-58
2021/08/11 06:24:45;;;;;;;4.42;2.58;;;;;;;39.13;29.06;98867.98;1870660;76;22047;-61
2021/08/11 06:27:20;;;;;;;6.00;2.35;;;;;;;39.23;29.15;98870.02;1870656;76;22469;-56
2021/08/11 06:29:54;;;;;;;4.87;2.47;;;;;;;39.61;28.74;98881.15;1870623;76;22466;-55
2021/08/11 06:32:48;;;;;;;7.20;2.70;;;;;;;39.25;29.10;98871.53;1889845;76;22488;-56
2021/08/11 06:35:23;;;;;;;10.05;2.90;;;;;;;39.57;28.60;98869.02;1870642;76;22046;-60
2021/08/11 06:37:58;;;;;;;8.10;2.25;;;;;;;39.13;29.22;98866.64;1870492;76;22652;-62
2021/08/11 06:40:38;;;;;;;9.03;2.37;;;;;;;39.62;28.55;98872.05;1870618;76;22051;-54
2021/08/11 06:43:31;;;;;;;6.70;2.80;;;;;;;39.80;28.35;98867.81;1870567;76;22066;-58
2021/08/11 06:46:06;;;;;;;7.17;2.33;;;;;;;40.05;27.72;98873.48;1870639;76;22105;-57
2021/08/11 06:48:41;;;;;;;5.53;2.70;;;;;;;40.28;27.40;98883.56;1889911;76;22212;-58
2021/08/11 06:51:35;;;;;;;6.42;2.30;;;;;;;40.00;27.33;98869.10;1870586;76;22481;-62
2021/08/11 06:54:11;;;;;;;4.60;2.30;;;;;;;39.29;27.84;98872.05;1889926;76;22038;-60
2021/08/11 06:56:47;;;;;;;3.17;2.05;;;;;;;38.75;28.20;98863.53;1889926;76;22127;-56
2021/08/11 06:59:41;;;;;;;3.40;2.10;;;;;;;38.68;28.91;98863.38;1889838;76;22082;-59
2021/08/11 07:02:15;;;;;;;7.35;2.37;;;;;;;38.62;28.82;98859.48;1870652;76;22469;-63
2021/08/11 07:04:50;;;;;;;6.05;2.47;;;;;;;38.42;28.77;98852.63;1870678;76;22062;-64
2021/08/11 07:07:25;;;;;;;4.97;2.25;;;;;;;38.25;29.14;98850.92;1870698;76;22465;-66
2021/08/11 07:10:20;;;;;;;4.78;2.00;;;;;;;37.83;29.58;98853.05;1870489;76;22059;-62
2021/08/11 07:12:54;;;;;;;4.95;2.00;;;;;;;37.41;29.30;98852.44;1890061;76;22041;-60
2021/08/11 07:15:35;;;;;;;4.72;2.10;;;;;;;37.37;29.93;98854.06;1869867;76;22058;-61
2021/08/11 07:18:12;;;;;;;3.85;2.00;;;;;;;37.73;28.92;98843.25;1870647;76;22062;-63
2021/08/11 07:20:47;;;;;;;3.87;1.98;;;;;;;37.60;28.83;98837.94;1870745;76;22062;-59
2021/08/11 07:23:40;;;;;;;5.25;2.00;;;;;;;37.56;28.67;98846.34;1870556;76;22063;-58
2021/08/11 07:26:17;;;;;;;4.85;2.10;;;;;;;37.85;28.58;98848.34;1870614;76;22112;-62
2021/08/11 07:28:51;;;;;;;5.20;2.08;;;;;;;38.69;28.09;98848.86;1870597;76;22133;-61
2021/08/11 07:31:26;;;;;;;6.25;2.17;;;;;;;38.62;28.12;98856.80;1870613;76;22062;-63
2021/08/11 07:34:00;;;;;;;5.45;2.10;;;;;;;38.98;27.15;98852.97;1889928;76;22057;-58
2021/08/11 07:36:35;;;;;;;5.30;1.82;;;;;;;38.61;27.30;98845.65;1889886;76;22062;-56
2021/08/11 07:39:09;;;;;;;3.87;1.98;;;;;;;38.16;27.22;98860.81;1870614;76;22054;-63
2021/08/11 07:41:44;;;;;;;4.12;1.90;;;;;;;38.06;25.97;98859.58;1889951;76;22045;-62
2021/08/11 07:44:39;;;;;;;2.50;1.40;;;;;;;38.26;26.46;98866.08;1870602;76;22058;-63
2021/08/11 07:47:19;;;;;;;3.47;1.65;;;;;;;38.42;25.54;98858.03;1889869;76;22072;-58
2021/08/11 07:49:55;;;;;;;4.87;1.70;;;;;;;38.11;25.71;98855.90;1854768;76;28313;-56
2021/08/11 07:52:30;;;;;;;2.95;1.30;;;;;;;37.83;25.50;98851.70;1870681;76;22066;-60
2021/08/11 07:55:07;;;;;;;4.55;1.70;;;;;;;37.32;26.35;98858.23;1870648;76;22627;-63
2021/08/11 07:58:00;;;;;;;3.65;1.72;;;;;;;37.51;26.62;98851.35;1870658;76;20212;-66
2021/08/11 08:00:54;;;;;;;4.85;1.82;;;;;;;38.18;25.36;98834.55;1870540;76;22494;-60
2021/08/11 08:03:29;;;;;;;4.00;1.90;;;;;;;37.88;25.40;98858.80;1870711;76;22454;-61
2021/08/11 08:06:22;;;;;;;5.47;1.60;;;;;;;37.39;26.35;98839.62;1889878;76;22496;-60
2021/08/11 08:08:57;;;;;;;6.40;1.92;;;;;;;37.08;26.93;98846.28;1870678;76;22050;-56
2021/08/11 08:11:33;;;;;;;3.50;1.60;;;;;;;37.18;26.65;98851.59;1889973;76;22057;-58
2021/08/11 08:14:27;;;;;;;5.10;1.67;;;;;;;37.13;26.26;98847.17;1873850;76;27933;-52
2021/08/11 08:17:03;;;;;;;4.42;1.45;;;;;;;37.13;26.48;98853.90;1870681;76;22235;-56
2021/08/11 08:19:37;;;;;;;3.90;1.52;;;;;;;37.51;26.09;98853.20;1854879;76;27854;-61
2021/08/11 08:22:32;;;;;;;5.55;1.32;;;;;;;37.79;25.54;98846.64;1870624;76;22062;-54
2021/08/11 08:25:13;;;;;;;2.92;1.52;;;;;;;37.19;25.91;98845.70;1869797;76;22071;-58
2021/08/11 08:27:50;;;;;;;5.50;1.67;;;;;;;37.06;26.03;98856.86;1874020;76;28304;-57
2021/08/11 08:30:25;;;;;;;6.95;1.70;;;;;;;37.37;25.76;98852.72;1870593;76;22461;-61
2021/08/11 08:33:00;;;;;;;5.72;1.70;;;;;;;37.41;25.92;98839.81;1870657;76;22047;-55
2021/08/11 08:35:54;;;;;;;4.03;1.77;;;;;;;37.79;25.20;98849.84;1889881;76;22061;-57
2021/08/11 08:38:29;;;;;;;3.98;1.52;;;;;;;37.45;25.52;98832.25;1870667;76;22062;-60
2021/08/11 08:41:03;;;;;;;3.52;1.67;;;;;;;36.89;25.84;98844.59;1870657;76;22462;-61
2021/08/11 08:43:40;;;;;;;3.90;1.87;;;;;;;36.94;25.99;98830.65;1870604;76;22128;-60
2021/08/11 08:46:35;;;;;;;2.37;1.55;;;;;;;36.81;25.27;98820.79;1889927;76;22081;-58
2021/08/11 08:49:29;;;;;;;3.70;1.57;;;;;;;36.03;26.31;98824.78;1870597;76;22082;-52
2021/08/11 08:52:05;;;;;;;4.80;1.80;;;;;;;35.90;26.96;98820.73;1870666;76;22047;-62
2021/08/11 08:54:43;;;;;;;2.47;1.50;;;;;;;36.01;26.82;98828.61;1870473;76;22106;-63
2021/08/11 08:57:18;;;;;;;3.77;1.50;;;;;;;35.90;26.13;98816.23;1870669;76;22058;-57
2021/08/11 08:59:53;;;;;;;3.12;1.72;;;;;;;35.36;26.95;98808.38;1870643;76;22473;-59
2021/08/11 09:02:28;;;;;;;5.55;1.65;;;;;;;35.13;27.32;98785.89;1870669;76;22217;-62
2021/08/11 09:05:05;;;;;;;5.72;1.90;;;;;;;34.80;28.00;98803.26;1854881;76;28409;-57
2021/08/11 09:07:59;;;;;;;6.07;1.70;;;;;;;34.96;26.68;98806.23;1854743;76;27859;-58
2021/08/11 09:10:38;;;;;;;3.37;1.90;;;;;;;34.79;26.96;98810.47;1870672;76;22936;-58
2021/08/11 09:13:19;;;;;;;7.17;1.98;;;;;;;34.38;27.46;98803.99;1870678;76;22132;-58
2021/08/11 09:15:57;;;;;;;5.87;2.00;;;;;;;34.00;27.74;98805.06;1870771;76;22208;-61
2021/08/11 09:18:52;;;;;;;3.70;2.00;;;;;;;33.24;28.71;98799.17;1870622;76;22063;-56
2021/08/11 09:22:02;;;;;;;4.97;2.00;;;;;;;32.67;29.50;98795.04;1870575;76;22489;-60
2021/08/11 09:24:40;;;;;;;4.22;1.62;;;;;;;32.20;29.56;98793.45;1889983;76;22488;-56
2021/08/11 09:27:44;;;;;;;10.63;1.98;;;;;;;31.49;30.83;98778.17;1889951;76;22047;-65
2021/08/11 09:30:39;;;;;;;6.83;2.30;;;;;;;31.04;31.80;98783.88;1870550;76;22473;-68
2021/08/11 09:33:33;;;;;;;6.10;2.10;;;;;;;30.87;32.18;98783.36;1889987;76;22223;-60
2021/08/11 09:36:13;;;;;;;6.00;2.43;;;;;;;30.56;33.01;98778.59;1854906;76;38810;-60
2021/08/11 09:39:09;;;;;;;3.83;2.15;;;;;;;30.31;34.19;98780.42;1889923;76;22449;-57
2021/08/11 09:42:05;;;;;;;4.80;2.08;;;;;;;30.03;34.45;98775.73;1873886;76;28293;-55
2021/08/11 09:44:42;;;;;;;4.40;2.33;;;;;;;30.00;34.36;98779.95;1870558;76;22050;-58
2021/08/11 09:47:17;;;;;;;4.28;2.10;;;;;;;29.83;34.37;98777.65;1889934;76;22093;-60
2021/08/11 09:50:01;;;;;;;3.10;2.02;;;;;;;29.74;34.15;98771.64;1870666;76;22298;-57
2021/08/11 09:52:49;;;;;;;4.30;2.25;;;;;;;29.60;34.38;98767.28;1870676;76;22623;-59
2021/08/11 09:56:09;;;;;;;6.03;2.47;;;;;;;29.25;35.43;98768.41;1889982;76;22058;-62
2021/08/11 09:59:04;;;;;;;6.08;2.20;;;;;;;29.02;35.88;98769.47;1889961;76;22310;-57
2021/08/11 10:01:40;;;;;;;4.35;2.40;;;;;;;28.83;36.25;98767.70;1889936;76;22625;-53
2021/08/11 10:04:41;;;;;;;4.10;2.00;;;;;;;28.81;35.94;98762.97;1870399;76;22559;-54
2021/08/11 10:07:17;;;;;;;3.70;2.10;;;;;;;28.76;35.69;98760.61;1870568;76;22556;-56
2021/08/11 10:10:12;;;;;;;5.97;2.35;;;;;;;28.64;33.89;98762.75;1870563;76;22543;-53
2021/08/11 10:12:49;;;;;;;4.10;2.10;;;;;;;28.52;33.56;98765.28;1854871;76;28263;-58
2021/08/11 10:15:45;;;;;;;6.28;1.90;;;;;;;28.49;33.45;98765.94;1870487;76;22481;-58
2021/08/11 10:18:24;;;;;;;3.27;1.70;;;;;;;28.42;33.28;98761.50;1870711;76;22278;-59
2021/08/11 10:21:20;;;;;;;3.20;1.90;;;;;;;28.49;33.40;98753.99;1889937;76;22120;-55
2021/08/11 10:23:56;;;;;;;4.85;2.20;;;;;;;28.49;32.78;98752.67;1870482;76;22136;-59
2021/08/11 10:26:54;;;;;;;5.53;2.50;;;;;;;28.48;33.08;98749.65;1870637;76;22160;-53
2021/08/11 10:29:51;;;;;;;6.28;2.20;;;;;;;28.58;33.66;98744.11;1856447;76;22174;-61
2021/08/11 10:32:45;;;;;;;4.05;2.20;;;;;;;28.74;32.56;98742.59;1873957;76;28442;-59
2021/08/11 10:35:20;;;;;;;5.00;2.10;;;;;;;28.77;32.84;98737.91;1854943;76;27858;-52
2021/08/11 10:38:01;;;;;;;5.08;2.20;;;;;;;28.73;31.74;98736.44;1870428;76;22136;-62
2021/08/11 10:40:41;;;;;;;4.90;1.80;;;;;;;28.66;31.60;98740.45;1889939;76;22579;-62
2021/08/11 10:43:37;;;;;;;3.27;1.92;;;;;;;28.69;31.79;98741.56;1889901;76;22576;-57
2021/08/11 10:46:16;;;;;;;4.12;2.00;;;;;;;28.70;32.07;98736.65;1870618;76;20094;-57
2021/08/11 10:49:05;;;;;;;4.37;2.00;;;;;;;28.70;31.74;98728.69;1870694;76;22136;-63
2021/08/11 10:52:08;;;;;;;4.10;2.22;;;;;;;28.67;32.16;98736.83;1870672;76;22201;-60
2021/08/11 10:55:06;;;;;;;4.30;2.15;;;;;;;28.64;31.88;98710.48;1870696;76;22147;-65
2021/08/11 10:58:02;;;;;;;4.53;2.00;;;;;;;28.66;31.76;98724.52;1870365;76;22586;-64
2021/08/11 11:00:57;;;;;;;5.80;2.12;;;;;;;28.67;32.09;98726.20;1870523;76;20355;-58
2021/08/11 11:03:53;;;;;;;4.12;2.12;;;;;;;28.74;32.30;98725.33;1870532;76;22238;-57
2021/08/11 11:06:55;;;;;;;4.60;2.20;;;;;;;28.73;32.63;98732.45;1854903;76;28370;-57
2021/08/11 11:09:32;;;;;;;2.70;1.45;;;;;;;28.90;32.55;98728.66;1889880;76;22145;-57
2021/08/11 11:12:24;;;;;;;4.75;1.70;;;;;;;29.07;33.02;98728.84;1889954;76;22096;-59
2021/08/11 11:15:18;;;;;;;2.85;1.70;;;;;;;29.30;32.32;98719.77;1889915;76;22551;-61
2021/08/11 11:18:18;;;;;;;4.67;2.00;;;;;;;29.39;32.12;98715.14;1870624;76;22547;-55
2021/08/11 11:21:02;;;;;;;3.00;1.82;;;;;;;29.39;32.48;98720.45;1889915;76;22155;-53
2021/08/11 11:23:56;;;;;;;3.47;1.90;;;;;;;29.40;32.38;98714.17;1870650;76;22117;-61
2021/08/11 11:26:50;;;;;;;5.33;2.02;;;;;;;29.46;32.37;98716.38;1870454;76;22596;-56
2021/08/11 11:29:30;;;;;;;4.03;1.80;;;;;;;29.54;32.48;98698.09;1870757;76;22101;-55
2021/08/11 11:32:11;;;;;;;5.85;2.20;;;;;;;29.53;32.46;98700.37;1870533;76;22112;-56
2021/08/11 11:34:46;;;;;;;4.22;1.85;;;;;;;29.57;32.48;98702.34;1889861;76;22550;-64
2021/08/11 11:37:41;;;;;;;4.03;2.00;;;;;;;29.54;32.70;98695.44;1870433;76;22112;-52
2021/08/11 11:40:17;;;;;;;4.15;2.00;;;;;;;29.53;32.68;98696.87;1870496;76;22176;-59
2021/08/11 11:42:56;;;;;;;3.83;1.77;;;;;;;29.54;32.20;98703.42;1889960;76;20354;-58
2021/08/11 11:45:45;;;;;;;3.05;1.72;;;;;;;29.54;32.01;98698.09;1889895;76;22112;-58
2021/08/11 11:48:20;;;;;;;3.77;1.62;;;;;;;29.61;31.76;98701.99;1870628;76;22109;-58
2021/08/11 11:51:04;;;;;;;3.20;1.57;;;;;;;29.64;31.87;98696.94;1889932;76;22127;-62
2021/08/11 11:53:40;;;;;;;4.47;1.85;;;;;;;29.75;31.87;98696.22;1870489;76;22105;-59
2021/08/11 11:56:33;;;;;;;4.92;2.10;;;;;;;29.75;31.72;98689.56;1870581;76;22113;-61
2021/08/11 11:59:09;;;;;;;5.42;2.00;;;;;;;29.78;32.04;98694.66;1870671;76;22109;-59
2021/08/11 12:02:12;;;;;;;4.72;2.02;;;;;;;29.92;32.12;98694.52;1890001;76;22148;-57
2021/08/11 12:05:06;;;;;;;2.72;1.80;;;;;;;30.11;31.06;98695.82;1889926;76;22126;-57
2021/08/11 12:07:59;;;;;;;3.60;1.55;;;;;;;30.14;30.18;98695.59;1870555;76;22550;-60
2021/08/11 12:11:11;;;;;;;4.17;1.77;;;;;;;30.05;29.71;98689.98;1870611;76;22152;-62
2021/08/11 12:14:01;;;;;;;5.90;2.85;;;;;;;29.98;30.09;98697.20;1870652;76;22524;-63
2021/08/11 12:16:55;;;;;;;5.45;1.90;;;;;;;30.03;30.15;98699.89;1870555;76;22655;-61
2021/08/11 12:19:49;;;;;;;4.25;1.70;;;;;;;30.22;29.77;98690.05;1870553;76;22192;-61
2021/08/11 12:22:34;;;;;;;5.40;2.20;;;;;;;30.39;29.58;98683.51;1870737;76;22144;-60
2021/08/11 12:25:28;;;;;;;4.25;2.12;;;;;;;30.44;29.75;98688.00;1870545;76;22164;-61
2021/08/11 12:28:19;;;;;;;5.37;2.02;;;;;;;30.50;29.90;98694.19;1889984;76;22046;-54
2021/08/11 12:31:23;;;;;;;3.45;1.90;;;;;;;30.63;30.05;98694.14;1870562;76;22172;-56
2021/08/11 12:33:58;;;;;;;5.03;2.22;;;;;;;30.64;30.00;98690.98;1889931;76;22325;-66
2021/08/11 12:36:54;;;;;;;5.35;1.90;;;;;;;30.75;30.34;98685.67;1870599;76;22143;-57
2021/08/11 12:39:37;;;;;;;4.83;2.08;;;;;;;30.78;29.74;98669.94;1889921;76;22179;-60
2021/08/11 12:42:13;;;;;;;4.10;2.08;;;;;;;30.64;29.85;98689.16;1870431;76;22136;-59
2021/08/11 12:45:09;;;;;;;6.90;2.08;;;;;;;30.59;30.29;98677.17;1870547;76;22565;-63
2021/08/11 12:48:25;;;;;;;5.10;2.15;;;;;;;30.45;30.96;98680.86;1873854;76;27899;-61
2021/08/11 12:51:08;;;;;;;3.72;2.08;;;;;;;30.43;31.30;98681.45;1870631;76;22047;-60